sensor_id;sensor_type;location;lat;lon;timestamp;P1;durP1;ratioP1;P2;durP2;ratioP2
29452;SDS011;16424;50.956;5.320;2023-07-30T00:01:21;7.20;;;1.52;;
29452;SDS011;16424;50.956;5.320;2023-07-30T00:03:47;8.05;;;1.67;;
29452;SDS011;16424;50.956;5.320;2023-07-30T00:06:12;6.22;;;1.70;;
29452;SDS011;16424;50.956;5.320;2023-07-30T00:08:38;7.82;;;1.70;;
29452;SDS011;16424;50.956;5.320;2023-07-30T00:11:03;3.17;;;1.70;;
29452;SDS011;16424;50.956;5.320;2023-07-30T00:13:29;6.15;;;1.63;;
29452;SDS011;16424;50.956;5.320;2023-07-30T00:15:55;7.03;;;2.70;;
29452;SDS011;16424;50.956;5.320;2023-07-30T00:18:20;7.93;;;2.42;;
29452;SDS011;16424;50.956;5.320;2023-07-30T00:20:46;5.97;;;1.77;;
29452;SDS011;16424;50.956;5.320;2023-07-30T00:23:12;6.72;;;2.00;;
29452;SDS011;16424;50.956;5.320;2023-07-30T00:25:37;6.10;;;2.10;;
29452;SDS011;16424;50.956;5.320;2023-07-30T00:28:03;10.18;;;2.25;;
29452;SDS011;16424;50.956;5.320;2023-07-30T00:30:29;7.25;;;1.80;;
29452;SDS011;16424;50.956;5.320;2023-07-30T00:32:54;12.10;;;2.00;;
29452;SDS011;16424;50.956;5.320;2023-07-30T00:35:20;4.90;;;1.80;;
29452;SDS011;16424;50.956;5.320;2023-07-30T00:37:45;8.68;;;2.03;;
29452;SDS011;16424;50.956;5.320;2023-07-30T00:40:11;7.55;;;1.77;;
29452;SDS011;16424;50.956;5.320;2023-07-30T00:42:37;5.30;;;1.83;;
29452;SDS011;16424;50.956;5.320;2023-07-30T00:45:03;9.20;;;2.03;;
29452;SDS011;16424;50.956;5.320;2023-07-30T00:47:29;5.20;;;1.85;;
29452;SDS011;16424;50.956;5.320;2023-07-30T00:49:56;7.32;;;1.95;;
29452;SDS011;16424;50.956;5.320;2023-07-30T00:52:22;17.83;;;2.10;;
29452;SDS011;16424;50.956;5.320;2023-07-30T00:54:48;7.03;;;2.13;;
29452;SDS011;16424;50.956;5.320;2023-07-30T00:57:18;7.22;;;1.77;;
29452;SDS011;16424;50.956;5.320;2023-07-30T00:59:44;7.45;;;1.85;;
29452;SDS011;16424;50.956;5.320;2023-07-30T01:02:11;12.43;;;2.03;;
29452;SDS011;16424;50.956;5.320;2023-07-30T01:04:37;6.65;;;1.80;;
29452;SDS011;16424;50.956;5.320;2023-07-30T01:07:04;4.57;;;2.00;;
29452;SDS011;16424;50.956;5.320;2023-07-30T01:09:31;9.30;;;2.25;;
29452;SDS011;16424;50.956;5.320;2023-07-30T01:11:57;6.90;;;2.20;;
29452;SDS011;16424;50.956;5.320;2023-07-30T01:14:24;7.75;;;2.50;;
29452;SDS011;16424;50.956;5.320;2023-07-30T01:16:51;9.13;;;2.75;;
29452;SDS011;16424;50.956;5.320;2023-07-30T01:19:17;6.50;;;2.42;;
29452;SDS011;16424;50.956;5.320;2023-07-30T01:21:43;6.95;;;2.00;;
29452;SDS011;16424;50.956;5.320;2023-07-30T01:24:09;7.72;;;2.05;;
29452;SDS011;16424;50.956;5.320;2023-07-30T01:29:09;7.90;;;2.25;;
29452;SDS011;16424;50.956;5.320;2023-07-30T01:31:42;8.85;;;1.92;;
29452;SDS011;16424;50.956;5.320;2023-07-30T01:34:10;8.75;;;2.17;;
29452;SDS011;16424;50.956;5.320;2023-07-30T01:36:37;8.93;;;2.60;;
29452;SDS011;16424;50.956;5.320;2023-07-30T01:39:04;7.82;;;2.20;;
29452;SDS011;16424;50.956;5.320;2023-07-30T01:41:31;9.63;;;1.90;;
29452;SDS011;16424;50.956;5.320;2023-07-30T01:43:57;5.22;;;1.83;;
29452;SDS011;16424;50.956;5.320;2023-07-30T01:46:23;13.30;;;2.63;;
29452;SDS011;16424;50.956;5.320;2023-07-30T01:48:48;13.65;;;2.38;;
29452;SDS011;16424;50.956;5.320;2023-07-30T01:51:14;9.98;;;2.38;;
29452;SDS011;16424;50.956;5.320;2023-07-30T01:53:40;11.68;;;2.40;;
29452;SDS011;16424;50.956;5.320;2023-07-30T01:56:05;8.65;;;2.00;;
29452;SDS011;16424;50.956;5.320;2023-07-30T01:58:31;11.43;;;1.95;;
29452;SDS011;16424;50.956;5.320;2023-07-30T02:00:57;7.95;;;2.13;;
29452;SDS011;16424;50.956;5.320;2023-07-30T02:03:22;8.68;;;3.10;;
29452;SDS011;16424;50.956;5.320;2023-07-30T02:05:48;9.38;;;2.20;;
29452;SDS011;16424;50.956;5.320;2023-07-30T02:08:14;4.70;;;2.08;;
29452;SDS011;16424;50.956;5.320;2023-07-30T02:10:41;11.25;;;2.30;;
29452;SDS011;16424;50.956;5.320;2023-07-30T02:13:06;8.75;;;1.98;;
29452;SDS011;16424;50.956;5.320;2023-07-30T02:15:32;7.05;;;2.28;;
29452;SDS011;16424;50.956;5.320;2023-07-30T02:17:58;7.18;;;1.73;;
29452;SDS011;16424;50.956;5.320;2023-07-30T02:20:23;9.10;;;2.63;;
29452;SDS011;16424;50.956;5.320;2023-07-30T02:22:49;4.88;;;1.77;;
29452;SDS011;16424;50.956;5.320;2023-07-30T02:25:15;4.88;;;1.95;;
29452;SDS011;16424;50.956;5.320;2023-07-30T02:27:41;8.88;;;2.42;;
29452;SDS011;16424;50.956;5.320;2023-07-30T02:30:06;7.22;;;1.90;;
29452;SDS011;16424;50.956;5.320;2023-07-30T02:32:32;6.57;;;2.00;;
29452;SDS011;16424;50.956;5.320;2023-07-30T02:34:58;9.85;;;1.98;;
29452;SDS011;16424;50.956;5.320;2023-07-30T02:37:23;10.52;;;2.30;;
29452;SDS011;16424;50.956;5.320;2023-07-30T02:39:49;7.07;;;2.30;;
29452;SDS011;16424;50.956;5.320;2023-07-30T02:42:15;7.80;;;2.00;;
29452;SDS011;16424;50.956;5.320;2023-07-30T02:44:40;7.85;;;2.38;;
29452;SDS011;16424;50.956;5.320;2023-07-30T02:47:06;8.38;;;2.22;;
29452;SDS011;16424;50.956;5.320;2023-07-30T02:49:31;4.88;;;1.98;;
29452;SDS011;16424;50.956;5.320;2023-07-30T02:51:57;5.85;;;2.30;;
29452;SDS011;16424;50.956;5.320;2023-07-30T02:54:23;17.95;;;2.70;;
29452;SDS011;16424;50.956;5.320;2023-07-30T02:56:48;6.95;;;2.22;;
29452;SDS011;16424;50.956;5.320;2023-07-30T02:59:14;12.07;;;2.15;;
29452;SDS011;16424;50.956;5.320;2023-07-30T03:01:39;7.65;;;2.03;;
29452;SDS011;16424;50.956;5.320;2023-07-30T03:04:05;12.48;;;2.40;;
29452;SDS011;16424;50.956;5.320;2023-07-30T03:06:31;10.35;;;2.45;;
29452;SDS011;16424;50.956;5.320;2023-07-30T03:08:57;7.20;;;1.60;;
29452;SDS011;16424;50.956;5.320;2023-07-30T03:11:22;6.43;;;1.55;;
29452;SDS011;16424;50.956;5.320;2023-07-30T03:13:48;8.70;;;2.10;;
29452;SDS011;16424;50.956;5.320;2023-07-30T03:16:14;12.07;;;2.08;;
29452;SDS011;16424;50.956;5.320;2023-07-30T03:18:39;16.70;;;2.20;;
29452;SDS011;16424;50.956;5.320;2023-07-30T03:21:05;10.00;;;1.90;;
29452;SDS011;16424;50.956;5.320;2023-07-30T03:23:31;9.85;;;1.75;;
29452;SDS011;16424;50.956;5.320;2023-07-30T03:25:57;10.13;;;2.00;;
29452;SDS011;16424;50.956;5.320;2023-07-30T03:28:25;11.32;;;1.73;;
29452;SDS011;16424;50.956;5.320;2023-07-30T03:30:50;8.75;;;1.80;;
29452;SDS011;16424;50.956;5.320;2023-07-30T03:33:16;7.70;;;2.58;;
29452;SDS011;16424;50.956;5.320;2023-07-30T03:35:41;12.32;;;1.80;;
29452;SDS011;16424;50.956;5.320;2023-07-30T03:38:07;9.82;;;1.63;;
29452;SDS011;16424;50.956;5.320;2023-07-30T03:40:33;9.38;;;2.55;;
29452;SDS011;16424;50.956;5.320;2023-07-30T03:42:59;11.85;;;2.65;;
29452;SDS011;16424;50.956;5.320;2023-07-30T03:45:24;9.73;;;1.98;;
29452;SDS011;16424;50.956;5.320;2023-07-30T03:47:50;4.82;;;1.67;;
29452;SDS011;16424;50.956;5.320;2023-07-30T03:50:16;8.27;;;1.42;;
29452;SDS011;16424;50.956;5.320;2023-07-30T03:52:41;11.18;;;1.55;;
29452;SDS011;16424;50.956;5.320;2023-07-30T03:55:07;8.63;;;1.30;;
29452;SDS011;16424;50.956;5.320;2023-07-30T03:57:33;7.38;;;1.55;;
29452;SDS011;16424;50.956;5.320;2023-07-30T03:59:59;10.02;;;1.67;;
29452;SDS011;16424;50.956;5.320;2023-07-30T04:02:25;12.32;;;1.60;;
29452;SDS011;16424;50.956;5.320;2023-07-30T04:04:51;4.18;;;1.27;;
29452;SDS011;16424;50.956;5.320;2023-07-30T04:07:17;6.75;;;1.10;;
29452;SDS011;16424;50.956;5.320;2023-07-30T04:09:42;10.02;;;1.10;;
29452;SDS011;16424;50.956;5.320;2023-07-30T04:12:08;4.88;;;0.98;;
29452;SDS011;16424;50.956;5.320;2023-07-30T04:14:34;5.65;;;1.00;;
29452;SDS011;16424;50.956;5.320;2023-07-30T04:16:59;4.10;;;1.10;;
29452;SDS011;16424;50.956;5.320;2023-07-30T04:19:25;6.32;;;1.08;;
29452;SDS011;16424;50.956;5.320;2023-07-30T04:21:51;4.05;;;0.90;;
29452;SDS011;16424;50.956;5.320;2023-07-30T04:24:16;3.78;;;1.33;;
29452;SDS011;16424;50.956;5.320;2023-07-30T04:26:42;8.50;;;0.98;;
29452;SDS011;16424;50.956;5.320;2023-07-30T04:29:07;2.95;;;0.80;;
29452;SDS011;16424;50.956;5.320;2023-07-30T04:31:35;7.40;;;1.13;;
29452;SDS011;16424;50.956;5.320;2023-07-30T04:34:03;5.70;;;0.90;;
29452;SDS011;16424;50.956;5.320;2023-07-30T04:36:29;3.70;;;0.90;;
29452;SDS011;16424;50.956;5.320;2023-07-30T04:38:54;6.45;;;1.48;;
29452;SDS011;16424;50.956;5.320;2023-07-30T04:41:20;6.15;;;1.00;;
29452;SDS011;16424;50.956;5.320;2023-07-30T04:43:51;4.40;;;1.13;;
29452;SDS011;16424;50.956;5.320;2023-07-30T04:46:17;8.00;;;1.52;;
29452;SDS011;16424;50.956;5.320;2023-07-30T04:48:42;10.02;;;1.73;;
29452;SDS011;16424;50.956;5.320;2023-07-30T04:51:08;6.53;;;1.35;;
29452;SDS011;16424;50.956;5.320;2023-07-30T04:53:34;10.65;;;1.67;;
29452;SDS011;16424;50.956;5.320;2023-07-30T04:55:59;4.30;;;1.10;;
29452;SDS011;16424;50.956;5.320;2023-07-30T04:58:25;6.97;;;1.60;;
29452;SDS011;16424;50.956;5.320;2023-07-30T05:00:50;8.90;;;1.33;;
29452;SDS011;16424;50.956;5.320;2023-07-30T05:03:16;9.57;;;1.90;;
29452;SDS011;16424;50.956;5.320;2023-07-30T05:05:42;5.93;;;1.77;;
29452;SDS011;16424;50.956;5.320;2023-07-30T05:08:07;8.55;;;1.40;;
29452;SDS011;16424;50.956;5.320;2023-07-30T05:10:33;4.70;;;1.35;;
29452;SDS011;16424;50.956;5.320;2023-07-30T05:12:58;6.13;;;1.58;;
29452;SDS011;16424;50.956;5.320;2023-07-30T05:15:25;4.15;;;1.60;;
29452;SDS011;16424;50.956;5.320;2023-07-30T05:17:51;8.48;;;1.30;;
29452;SDS011;16424;50.956;5.320;2023-07-30T05:20:16;13.63;;;1.65;;
29452;SDS011;16424;50.956;5.320;2023-07-30T05:22:42;8.82;;;1.77;;
29452;SDS011;16424;50.956;5.320;2023-07-30T05:25:08;10.75;;;1.98;;
29452;SDS011;16424;50.956;5.320;2023-07-30T05:27:34;10.90;;;1.60;;
29452;SDS011;16424;50.956;5.320;2023-07-30T05:30:00;4.55;;;1.67;;
29452;SDS011;16424;50.956;5.320;2023-07-30T05:32:26;6.70;;;1.25;;
29452;SDS011;16424;50.956;5.320;2023-07-30T05:34:51;6.82;;;2.38;;
29452;SDS011;16424;50.956;5.320;2023-07-30T05:37:20;8.35;;;1.60;;
29452;SDS011;16424;50.956;5.320;2023-07-30T05:39:46;6.70;;;1.65;;
29452;SDS011;16424;50.956;5.320;2023-07-30T05:42:11;8.00;;;1.48;;
29452;SDS011;16424;50.956;5.320;2023-07-30T05:44:37;8.50;;;1.75;;
29452;SDS011;16424;50.956;5.320;2023-07-30T05:47:03;9.43;;;1.70;;
29452;SDS011;16424;50.956;5.320;2023-07-30T05:49:28;8.88;;;2.67;;
29452;SDS011;16424;50.956;5.320;2023-07-30T05:51:54;11.52;;;1.90;;
29452;SDS011;16424;50.956;5.320;2023-07-30T05:54:20;7.70;;;1.23;;
29452;SDS011;16424;50.956;5.320;2023-07-30T05:56:45;12.48;;;1.73;;
29452;SDS011;16424;50.956;5.320;2023-07-30T05:59:11;11.85;;;1.45;;
29452;SDS011;16424;50.956;5.320;2023-07-30T06:01:36;6.68;;;1.42;;
29452;SDS011;16424;50.956;5.320;2023-07-30T06:04:02;7.50;;;1.45;;
29452;SDS011;16424;50.956;5.320;2023-07-30T06:06:31;12.45;;;1.98;;
29452;SDS011;16424;50.956;5.320;2023-07-30T06:08:57;5.82;;;1.30;;
29452;SDS011;16424;50.956;5.320;2023-07-30T06:11:22;7.22;;;2.20;;
29452;SDS011;16424;50.956;5.320;2023-07-30T06:13:48;9.82;;;1.63;;
29452;SDS011;16424;50.956;5.320;2023-07-30T06:16:14;7.93;;;1.48;;
29452;SDS011;16424;50.956;5.320;2023-07-30T06:18:40;5.88;;;1.38;;
29452;SDS011;16424;50.956;5.320;2023-07-30T06:21:05;11.07;;;1.92;;
29452;SDS011;16424;50.956;5.320;2023-07-30T06:23:31;8.40;;;1.40;;
29452;SDS011;16424;50.956;5.320;2023-07-30T06:25:57;8.18;;;1.40;;
29452;SDS011;16424;50.956;5.320;2023-07-30T06:28:22;6.05;;;1.60;;
29452;SDS011;16424;50.956;5.320;2023-07-30T06:30:48;8.82;;;1.88;;
29452;SDS011;16424;50.956;5.320;2023-07-30T06:33:14;5.95;;;1.50;;
29452;SDS011;16424;50.956;5.320;2023-07-30T06:35:40;8.98;;;1.75;;
29452;SDS011;16424;50.956;5.320;2023-07-30T06:38:07;13.23;;;2.03;;
29452;SDS011;16424;50.956;5.320;2023-07-30T06:40:34;10.15;;;1.70;;
29452;SDS011;16424;50.956;5.320;2023-07-30T06:42:59;7.20;;;1.90;;
29452;SDS011;16424;50.956;5.320;2023-07-30T06:45:25;11.75;;;2.10;;
29452;SDS011;16424;50.956;5.320;2023-07-30T06:47:51;8.13;;;1.92;;
29452;SDS011;16424;50.956;5.320;2023-07-30T06:50:17;12.90;;;2.05;;
29452;SDS011;16424;50.956;5.320;2023-07-30T06:52:42;10.80;;;2.10;;
29452;SDS011;16424;50.956;5.320;2023-07-30T06:55:08;8.10;;;1.48;;
29452;SDS011;16424;50.956;5.320;2023-07-30T06:57:34;9.05;;;1.30;;
29452;SDS011;16424;50.956;5.320;2023-07-30T06:59:59;11.73;;;1.52;;
29452;SDS011;16424;50.956;5.320;2023-07-30T07:02:26;9.35;;;1.63;;
29452;SDS011;16424;50.956;5.320;2023-07-30T07:04:53;8.23;;;1.63;;
29452;SDS011;16424;50.956;5.320;2023-07-30T07:07:19;8.98;;;2.72;;
29452;SDS011;16424;50.956;5.320;2023-07-30T07:09:45;10.98;;;1.80;;
29452;SDS011;16424;50.956;5.320;2023-07-30T07:12:11;12.10;;;2.20;;
29452;SDS011;16424;50.956;5.320;2023-07-30T07:14:36;14.75;;;2.13;;
29452;SDS011;16424;50.956;5.320;2023-07-30T07:17:02;13.35;;;1.77;;
29452;SDS011;16424;50.956;5.320;2023-07-30T07:19:28;13.98;;;2.45;;
29452;SDS011;16424;50.956;5.320;2023-07-30T07:21:54;9.98;;;2.10;;
29452;SDS011;16424;50.956;5.320;2023-07-30T07:24:19;13.73;;;2.15;;
29452;SDS011;16424;50.956;5.320;2023-07-30T07:26:45;11.48;;;1.67;;
29452;SDS011;16424;50.956;5.320;2023-07-30T07:29:11;11.20;;;2.13;;
29452;SDS011;16424;50.956;5.320;2023-07-30T07:31:36;15.07;;;2.08;;
29452;SDS011;16424;50.956;5.320;2023-07-30T07:34:02;12.43;;;2.00;;
29452;SDS011;16424;50.956;5.320;2023-07-30T07:36:28;15.48;;;2.90;;
29452;SDS011;16424;50.956;5.320;2023-07-30T07:38:53;11.50;;;1.80;;
29452;SDS011;16424;50.956;5.320;2023-07-30T07:41:19;15.32;;;1.98;;
29452;SDS011;16424;50.956;5.320;2023-07-30T07:43:46;8.85;;;1.42;;
29452;SDS011;16424;50.956;5.320;2023-07-30T07:46:12;8.27;;;1.52;;
29452;SDS011;16424;50.956;5.320;2023-07-30T07:48:41;10.02;;;1.55;;
29452;SDS011;16424;50.956;5.320;2023-07-30T07:51:08;15.00;;;1.85;;
29452;SDS011;16424;50.956;5.320;2023-07-30T07:53:35;5.90;;;1.40;;
29452;SDS011;16424;50.956;5.320;2023-07-30T07:56:02;11.98;;;2.05;;
29452;SDS011;16424;50.956;5.320;2023-07-30T07:58:27;10.15;;;1.65;;
29452;SDS011;16424;50.956;5.320;2023-07-30T08:00:54;6.93;;;1.23;;
29452;SDS011;16424;50.956;5.320;2023-07-30T08:03:20;11.23;;;1.85;;
29452;SDS011;16424;50.956;5.320;2023-07-30T08:05:47;11.48;;;1.70;;
29452;SDS011;16424;50.956;5.320;2023-07-30T08:08:15;7.47;;;1.30;;
29452;SDS011;16424;50.956;5.320;2023-07-30T08:10:41;10.75;;;2.30;;
29452;SDS011;16424;50.956;5.320;2023-07-30T08:13:12;10.93;;;1.73;;
29452;SDS011;16424;50.956;5.320;2023-07-30T08:15:38;8.45;;;1.77;;
29452;SDS011;16424;50.956;5.320;2023-07-30T08:18:04;8.25;;;1.48;;
29452;SDS011;16424;50.956;5.320;2023-07-30T08:20:30;7.85;;;1.63;;
29452;SDS011;16424;50.956;5.320;2023-07-30T08:22:56;11.18;;;1.88;;
29452;SDS011;16424;50.956;5.320;2023-07-30T08:25:21;9.35;;;1.70;;
29452;SDS011;16424;50.956;5.320;2023-07-30T08:27:50;6.65;;;1.35;;
29452;SDS011;16424;50.956;5.320;2023-07-30T08:30:16;11.40;;;2.42;;
29452;SDS011;16424;50.956;5.320;2023-07-30T08:32:41;9.25;;;1.88;;
29452;SDS011;16424;50.956;5.320;2023-07-30T08:35:08;10.20;;;2.13;;
29452;SDS011;16424;50.956;5.320;2023-07-30T08:37:34;5.78;;;1.48;;
29452;SDS011;16424;50.956;5.320;2023-07-30T08:40:00;5.05;;;1.60;;
29452;SDS011;16424;50.956;5.320;2023-07-30T08:42:26;8.88;;;1.42;;
29452;SDS011;16424;50.956;5.320;2023-07-30T08:44:51;7.20;;;1.52;;
29452;SDS011;16424;50.956;5.320;2023-07-30T08:47:17;5.07;;;1.42;;
29452;SDS011;16424;50.956;5.320;2023-07-30T08:49:43;6.55;;;1.67;;
29452;SDS011;16424;50.956;5.320;2023-07-30T08:52:09;14.80;;;1.75;;
29452;SDS011;16424;50.956;5.320;2023-07-30T08:54:36;10.38;;;1.35;;
29452;SDS011;16424;50.956;5.320;2023-07-30T08:57:03;11.77;;;1.50;;
29452;SDS011;16424;50.956;5.320;2023-07-30T09:00:04;5.22;;;1.13;;
29452;SDS011;16424;50.956;5.320;2023-07-30T09:02:34;11.00;;;1.77;;
29452;SDS011;16424;50.956;5.320;2023-07-30T09:05:03;8.30;;;1.50;;
29452;SDS011;16424;50.956;5.320;2023-07-30T09:07:30;7.32;;;1.10;;
29452;SDS011;16424;50.956;5.320;2023-07-30T09:09:56;8.23;;;1.45;;
29452;SDS011;16424;50.956;5.320;2023-07-30T09:12:25;6.43;;;1.83;;
29452;SDS011;16424;50.956;5.320;2023-07-30T09:14:55;8.45;;;1.67;;
29452;SDS011;16424;50.956;5.320;2023-07-30T09:17:21;8.77;;;1.60;;
29452;SDS011;16424;50.956;5.320;2023-07-30T09:19:47;7.28;;;1.08;;
29452;SDS011;16424;50.956;5.320;2023-07-30T09:22:19;7.93;;;1.48;;
29452;SDS011;16424;50.956;5.320;2023-07-30T09:24:55;5.78;;;1.27;;
29452;SDS011;16424;50.956;5.320;2023-07-30T09:27:23;10.10;;;1.85;;
29452;SDS011;16424;50.956;5.320;2023-07-30T09:29:53;9.88;;;1.63;;
29452;SDS011;16424;50.956;5.320;2023-07-30T09:32:24;6.03;;;1.67;;
29452;SDS011;16424;50.956;5.320;2023-07-30T09:34:51;3.92;;;1.10;;
29452;SDS011;16424;50.956;5.320;2023-07-30T09:37:17;7.40;;;1.75;;
29452;SDS011;16424;50.956;5.320;2023-07-30T09:39:42;22.55;;;1.85;;
29452;SDS011;16424;50.956;5.320;2023-07-30T09:42:08;4.47;;;1.40;;
29452;SDS011;16424;50.956;5.320;2023-07-30T09:44:35;10.88;;;2.08;;
29452;SDS011;16424;50.956;5.320;2023-07-30T09:47:03;9.07;;;1.35;;
29452;SDS011;16424;50.956;5.320;2023-07-30T09:49:30;4.22;;;1.05;;
29452;SDS011;16424;50.956;5.320;2023-07-30T09:51:57;8.35;;;1.90;;
29452;SDS011;16424;50.956;5.320;2023-07-30T09:54:23;7.72;;;1.42;;
29452;SDS011;16424;50.956;5.320;2023-07-30T09:56:49;10.57;;;2.10;;
29452;SDS011;16424;50.956;5.320;2023-07-30T09:59:15;6.43;;;1.50;;
29452;SDS011;16424;50.956;5.320;2023-07-30T10:01:42;6.72;;;1.33;;
29452;SDS011;16424;50.956;5.320;2023-07-30T10:04:10;11.57;;;2.58;;
29452;SDS011;16424;50.956;5.320;2023-07-30T10:06:39;8.82;;;1.33;;
29452;SDS011;16424;50.956;5.320;2023-07-30T10:09:10;6.78;;;1.33;;
29452;SDS011;16424;50.956;5.320;2023-07-30T10:11:37;6.30;;;1.50;;
29452;SDS011;16424;50.956;5.320;2023-07-30T10:14:05;11.88;;;1.15;;
29452;SDS011;16424;50.956;5.320;2023-07-30T10:16:31;6.07;;;0.73;;
29452;SDS011;16424;50.956;5.320;2023-07-30T10:18:57;2.67;;;0.80;;
29452;SDS011;16424;50.956;5.320;2023-07-30T10:21:24;3.85;;;0.80;;
29452;SDS011;16424;50.956;5.320;2023-07-30T10:24:01;2.88;;;0.90;;
29452;SDS011;16424;50.956;5.320;2023-07-30T10:26:29;2.55;;;0.95;;
29452;SDS011;16424;50.956;5.320;2023-07-30T10:31:59;2.20;;;0.70;;
29452;SDS011;16424;50.956;5.320;2023-07-30T10:34:26;3.88;;;0.88;;
29452;SDS011;16424;50.956;5.320;2023-07-30T10:37:07;4.38;;;1.05;;
29452;SDS011;16424;50.956;5.320;2023-07-30T10:39:33;7.00;;;1.30;;
29452;SDS011;16424;50.956;5.320;2023-07-30T10:42:00;4.63;;;1.75;;
29452;SDS011;16424;50.956;5.320;2023-07-30T10:44:33;4.95;;;1.15;;
29452;SDS011;16424;50.956;5.320;2023-07-30T10:47:00;5.07;;;1.15;;
29452;SDS011;16424;50.956;5.320;2023-07-30T10:49:28;4.25;;;1.13;;
29452;SDS011;16424;50.956;5.320;2023-07-30T10:51:55;4.88;;;0.82;;
29452;SDS011;16424;50.956;5.320;2023-07-30T10:54:25;8.43;;;1.45;;
29452;SDS011;16424;50.956;5.320;2023-07-30T10:56:51;8.35;;;1.63;;
29452;SDS011;16424;50.956;5.320;2023-07-30T10:59:16;5.72;;;0.90;;
29452;SDS011;16424;50.956;5.320;2023-07-30T11:01:44;7.63;;;1.95;;
29452;SDS011;16424;50.956;5.320;2023-07-30T11:04:11;6.53;;;1.15;;
29452;SDS011;16424;50.956;5.320;2023-07-30T11:06:51;8.70;;;1.10;;
29452;SDS011;16424;50.956;5.320;2023-07-30T11:11:52;9.93;;;1.20;;
29452;SDS011;16424;50.956;5.320;2023-07-30T11:14:21;8.18;;;1.77;;
29452;SDS011;16424;50.956;5.320;2023-07-30T11:16:58;5.22;;;1.10;;
29452;SDS011;16424;50.956;5.320;2023-07-30T11:19:25;4.15;;;0.70;;
29452;SDS011;16424;50.956;5.320;2023-07-30T11:21:52;10.05;;;1.33;;
29452;SDS011;16424;50.956;5.320;2023-07-30T11:24:19;3.42;;;1.05;;
29452;SDS011;16424;50.956;5.320;2023-07-30T11:26:46;8.18;;;1.05;;
29452;SDS011;16424;50.956;5.320;2023-07-30T11:29:26;8.70;;;1.33;;
29452;SDS011;16424;50.956;5.320;2023-07-30T11:31:52;5.95;;;1.27;;
29452;SDS011;16424;50.956;5.320;2023-07-30T11:34:21;5.40;;;1.02;;
29452;SDS011;16424;50.956;5.320;2023-07-30T11:36:47;7.63;;;1.50;;
29452;SDS011;16424;50.956;5.320;2023-07-30T11:39:13;5.78;;;1.73;;
29452;SDS011;16424;50.956;5.320;2023-07-30T11:41:40;8.15;;;1.55;;
29452;SDS011;16424;50.956;5.320;2023-07-30T11:44:06;6.10;;;1.63;;
29452;SDS011;16424;50.956;5.320;2023-07-30T11:46:31;6.00;;;1.55;;
29452;SDS011;16424;50.956;5.320;2023-07-30T11:49:11;6.13;;;1.73;;
29452;SDS011;16424;50.956;5.320;2023-07-30T11:51:39;5.65;;;1.60;;
29452;SDS011;16424;50.956;5.320;2023-07-30T11:54:06;10.23;;;1.55;;
29452;SDS011;16424;50.956;5.320;2023-07-30T11:56:33;7.05;;;1.35;;
29452;SDS011;16424;50.956;5.320;2023-07-30T11:59:00;5.18;;;1.00;;
29452;SDS011;16424;50.956;5.320;2023-07-30T12:01:30;8.10;;;1.35;;
29452;SDS011;16424;50.956;5.320;2023-07-30T12:03:57;7.78;;;1.25;;
29452;SDS011;16424;50.956;5.320;2023-07-30T12:06:24;5.97;;;1.10;;
29452;SDS011;16424;50.956;5.320;2023-07-30T12:09:09;5.50;;;1.23;;
29452;SDS011;16424;50.956;5.320;2023-07-30T12:11:44;4.78;;;0.80;;
29452;SDS011;16424;50.956;5.320;2023-07-30T12:14:26;9.40;;;1.27;;
29452;SDS011;16424;50.956;5.320;2023-07-30T12:16:59;6.80;;;1.55;;
29452;SDS011;16424;50.956;5.320;2023-07-30T12:19:25;5.57;;;0.93;;
29452;SDS011;16424;50.956;5.320;2023-07-30T12:21:51;9.52;;;1.52;;
29452;SDS011;16424;50.956;5.320;2023-07-30T12:24:16;9.00;;;1.33;;
29452;SDS011;16424;50.956;5.320;2023-07-30T12:26:42;6.20;;;1.20;;
29452;SDS011;16424;50.956;5.320;2023-07-30T12:29:08;5.70;;;1.10;;
29452;SDS011;16424;50.956;5.320;2023-07-30T12:31:33;8.05;;;1.65;;
29452;SDS011;16424;50.956;5.320;2023-07-30T12:33:59;6.00;;;0.98;;
29452;SDS011;16424;50.956;5.320;2023-07-30T12:36:25;5.50;;;1.20;;
29452;SDS011;16424;50.956;5.320;2023-07-30T12:38:51;7.65;;;1.67;;
29452;SDS011;16424;50.956;5.320;2023-07-30T12:41:19;7.43;;;1.00;;
29452;SDS011;16424;50.956;5.320;2023-07-30T12:43:51;9.70;;;1.55;;
29452;SDS011;16424;50.956;5.320;2023-07-30T12:46:23;7.60;;;1.30;;
29452;SDS011;16424;50.956;5.320;2023-07-30T12:48:52;5.10;;;1.15;;
29452;SDS011;16424;50.956;5.320;2023-07-30T12:51:18;16.50;;;2.17;;
29452;SDS011;16424;50.956;5.320;2023-07-30T12:53:43;8.60;;;1.08;;
29452;SDS011;16424;50.956;5.320;2023-07-30T12:56:09;9.52;;;1.42;;
29452;SDS011;16424;50.956;5.320;2023-07-30T12:58:35;6.47;;;1.10;;
29452;SDS011;16424;50.956;5.320;2023-07-30T13:01:02;7.53;;;1.30;;
29452;SDS011;16424;50.956;5.320;2023-07-30T13:03:29;3.67;;;1.50;;
29452;SDS011;16424;50.956;5.320;2023-07-30T13:05:55;6.88;;;1.40;;
29452;SDS011;16424;50.956;5.320;2023-07-30T13:08:20;3.30;;;0.95;;
29452;SDS011;16424;50.956;5.320;2023-07-30T13:10:46;6.15;;;0.93;;
29452;SDS011;16424;50.956;5.320;2023-07-30T13:13:11;4.07;;;0.90;;
29452;SDS011;16424;50.956;5.320;2023-07-30T13:15:37;5.07;;;1.20;;
29452;SDS011;16424;50.956;5.320;2023-07-30T13:18:03;3.67;;;0.80;;
29452;SDS011;16424;50.956;5.320;2023-07-30T13:20:28;7.68;;;0.90;;
29452;SDS011;16424;50.956;5.320;2023-07-30T13:22:56;8.07;;;1.58;;
29452;SDS011;16424;50.956;5.320;2023-07-30T13:25:21;3.88;;;0.90;;
29452;SDS011;16424;50.956;5.320;2023-07-30T13:27:48;5.93;;;0.80;;
29452;SDS011;16424;50.956;5.320;2023-07-30T13:30:13;6.30;;;0.95;;
29452;SDS011;16424;50.956;5.320;2023-07-30T13:32:39;5.25;;;1.00;;
29452;SDS011;16424;50.956;5.320;2023-07-30T13:35:05;7.15;;;1.30;;
29452;SDS011;16424;50.956;5.320;2023-07-30T13:37:31;3.03;;;1.33;;
29452;SDS011;16424;50.956;5.320;2023-07-30T13:39:56;6.78;;;1.25;;
29452;SDS011;16424;50.956;5.320;2023-07-30T13:42:22;2.42;;;0.88;;
29452;SDS011;16424;50.956;5.320;2023-07-30T13:44:47;6.85;;;1.42;;
29452;SDS011;16424;50.956;5.320;2023-07-30T13:47:13;5.43;;;0.85;;
29452;SDS011;16424;50.956;5.320;2023-07-30T13:49:39;7.53;;;1.50;;
29452;SDS011;16424;50.956;5.320;2023-07-30T13:52:04;5.20;;;1.00;;
29452;SDS011;16424;50.956;5.320;2023-07-30T13:54:30;5.00;;;1.20;;
29452;SDS011;16424;50.956;5.320;2023-07-30T13:56:56;4.93;;;0.88;;
29452;SDS011;16424;50.956;5.320;2023-07-30T13:59:22;6.68;;;0.82;;
29452;SDS011;16424;50.956;5.320;2023-07-30T14:01:47;4.93;;;1.10;;
29452;SDS011;16424;50.956;5.320;2023-07-30T14:04:13;5.15;;;0.98;;
29452;SDS011;16424;50.956;5.320;2023-07-30T14:06:38;3.92;;;0.90;;
29452;SDS011;16424;50.956;5.320;2023-07-30T14:09:04;7.10;;;1.10;;
29452;SDS011;16424;50.956;5.320;2023-07-30T14:11:30;7.10;;;1.27;;
29452;SDS011;16424;50.956;5.320;2023-07-30T14:13:55;5.22;;;1.25;;
29452;SDS011;16424;50.956;5.320;2023-07-30T14:16:23;2.25;;;0.80;;
29452;SDS011;16424;50.956;5.320;2023-07-30T14:18:48;5.63;;;1.17;;
29452;SDS011;16424;50.956;5.320;2023-07-30T14:21:14;4.88;;;1.05;;
29452;SDS011;16424;50.956;5.320;2023-07-30T14:23:40;3.65;;;0.95;;
29452;SDS011;16424;50.956;5.320;2023-07-30T14:26:05;6.22;;;1.17;;
29452;SDS011;16424;50.956;5.320;2023-07-30T14:28:32;8.45;;;1.13;;
29452;SDS011;16424;50.956;5.320;2023-07-30T14:30:57;5.75;;;1.35;;
29452;SDS011;16424;50.956;5.320;2023-07-30T14:33:23;5.32;;;1.60;;
29452;SDS011;16424;50.956;5.320;2023-07-30T14:35:49;3.85;;;1.00;;
29452;SDS011;16424;50.956;5.320;2023-07-30T14:38:15;6.03;;;0.93;;
29452;SDS011;16424;50.956;5.320;2023-07-30T14:40:42;4.82;;;0.90;;
29452;SDS011;16424;50.956;5.320;2023-07-30T14:43:08;2.55;;;0.68;;
29452;SDS011;16424;50.956;5.320;2023-07-30T14:45:34;8.13;;;1.00;;
29452;SDS011;16424;50.956;5.320;2023-07-30T14:48:00;3.15;;;0.95;;
29452;SDS011;16424;50.956;5.320;2023-07-30T14:50:26;5.20;;;1.27;;